sensor_id;sensor_type;location;lat;lon;timestamp;P1;durP1;ratioP1;P2;durP2;ratioP2
25163;SDS011;13440;50.860;13.662;2023-12-28T00:02:15;4.40;;;1.50;;
25163;SDS011;13440;50.860;13.662;2023-12-28T00:04:40;3.58;;;1.70;;
25163;SDS011;13440;50.860;13.662;2023-12-28T00:07:06;5.65;;;1.80;;
25163;SDS011;13440;50.860;13.662;2023-12-28T00:09:31;4.18;;;1.77;;
25163;SDS011;13440;50.860;13.662;2023-12-28T00:11:56;3.13;;;1.50;;
25163;SDS011;13440;50.860;13.662;2023-12-28T00:14:21;3.22;;;1.85;;
25163;SDS011;13440;50.860;13.662;2023-12-28T00:16:47;2.43;;;1.23;;
25163;SDS011;13440;50.860;13.662;2023-12-28T00:19:12;2.37;;;1.47;;
25163;SDS011;13440;50.860;13.662;2023-12-28T00:21:37;2.63;;;1.30;;
25163;SDS011;13440;50.860;13.662;2023-12-28T00:24:03;1.50;;;1.10;;
25163;SDS011;13440;50.860;13.662;2023-12-28T00:26:28;2.80;;;0.98;;
25163;SDS011;13440;50.860;13.662;2023-12-28T00:29:01;2.35;;;0.90;;
25163;SDS011;13440;50.860;13.662;2023-12-28T00:31:26;2.70;;;1.03;;
25163;SDS011;13440;50.860;13.662;2023-12-28T00:33:51;1.43;;;0.83;;
25163;SDS011;13440;50.860;13.662;2023-12-28T00:36:17;1.47;;;0.80;;
25163;SDS011;13440;50.860;13.662;2023-12-28T00:38:42;1.27;;;0.80;;
25163;SDS011;13440;50.860;13.662;2023-12-28T00:41:07;1.38;;;0.70;;
25163;SDS011;13440;50.860;13.662;2023-12-28T00:43:32;2.70;;;1.00;;
25163;SDS011;13440;50.860;13.662;2023-12-28T00:45:58;1.00;;;0.70;;
25163;SDS011;13440;50.860;13.662;2023-12-28T00:48:23;1.38;;;0.70;;
25163;SDS011;13440;50.860;13.662;2023-12-28T00:50:48;1.58;;;0.90;;
25163;SDS011;13440;50.860;13.662;2023-12-28T00:53:14;0.55;;;0.50;;
25163;SDS011;13440;50.860;13.662;2023-12-28T00:55:39;0.70;;;0.70;;
25163;SDS011;13440;50.860;13.662;2023-12-28T00:58:04;0.80;;;0.60;;
25163;SDS011;13440;50.860;13.662;2023-12-28T01:00:29;0.90;;;0.70;;
25163;SDS011;13440;50.860;13.662;2023-12-28T01:02:54;0.97;;;0.63;;
25163;SDS011;13440;50.860;13.662;2023-12-28T01:05:20;0.77;;;0.60;;
25163;SDS011;13440;50.860;13.662;2023-12-28T01:07:46;0.80;;;0.80;;
25163;SDS011;13440;50.860;13.662;2023-12-28T01:10:11;1.23;;;0.70;;
25163;SDS011;13440;50.860;13.662;2023-12-28T01:12:37;1.05;;;0.90;;
25163;SDS011;13440;50.860;13.662;2023-12-28T01:15:02;1.40;;;0.63;;
25163;SDS011;13440;50.860;13.662;2023-12-28T01:17:28;1.27;;;0.80;;
25163;SDS011;13440;50.860;13.662;2023-12-28T01:19:54;1.03;;;0.50;;
25163;SDS011;13440;50.860;13.662;2023-12-28T01:22:19;1.40;;;0.50;;
25163;SDS011;13440;50.860;13.662;2023-12-28T01:24:47;0.73;;;0.60;;
25163;SDS011;13440;50.860;13.662;2023-12-28T01:27:14;1.02;;;0.70;;
25163;SDS011;13440;50.860;13.662;2023-12-28T01:29:39;1.52;;;0.55;;
25163;SDS011;13440;50.860;13.662;2023-12-28T01:32:05;0.60;;;0.50;;
25163;SDS011;13440;50.860;13.662;2023-12-28T01:34:30;0.80;;;0.60;;
25163;SDS011;13440;50.860;13.662;2023-12-28T01:36:55;0.97;;;0.77;;
25163;SDS011;13440;50.860;13.662;2023-12-28T01:39:20;1.67;;;0.80;;
25163;SDS011;13440;50.860;13.662;2023-12-28T01:41:46;0.57;;;0.50;;
25163;SDS011;13440;50.860;13.662;2023-12-28T01:44:11;0.70;;;0.70;;
25163;SDS011;13440;50.860;13.662;2023-12-28T01:46:36;1.15;;;0.77;;
25163;SDS011;13440;50.860;13.662;2023-12-28T01:49:03;0.90;;;0.63;;
25163;SDS011;13440;50.860;13.662;2023-12-28T01:51:29;0.85;;;0.65;;
25163;SDS011;13440;50.860;13.662;2023-12-28T01:53:54;0.95;;;0.70;;
25163;SDS011;13440;50.860;13.662;2023-12-28T01:56:20;1.10;;;0.70;;
25163;SDS011;13440;50.860;13.662;2023-12-28T01:58:46;1.15;;;0.70;;
25163;SDS011;13440;50.860;13.662;2023-12-28T02:01:13;0.65;;;0.50;;
25163;SDS011;13440;50.860;13.662;2023-12-28T02:03:38;0.80;;;0.80;;
25163;SDS011;13440;50.860;13.662;2023-12-28T02:06:04;2.28;;;0.60;;
25163;SDS011;13440;50.860;13.662;2023-12-28T02:08:31;2.13;;;0.73;;
25163;SDS011;13440;50.860;13.662;2023-12-28T02:10:56;0.95;;;0.85;;
25163;SDS011;13440;50.860;13.662;2023-12-28T02:13:21;0.70;;;0.70;;
25163;SDS011;13440;50.860;13.662;2023-12-28T02:15:49;0.70;;;0.65;;
25163;SDS011;13440;50.860;13.662;2023-12-28T02:18:17;1.15;;;0.90;;
25163;SDS011;13440;50.860;13.662;2023-12-28T02:20:44;1.23;;;0.70;;
25163;SDS011;13440;50.860;13.662;2023-12-28T02:23:10;0.63;;;0.60;;
25163;SDS011;13440;50.860;13.662;2023-12-28T02:25:36;0.68;;;0.68;;
25163;SDS011;13440;50.860;13.662;2023-12-28T02:28:01;2.05;;;0.50;;
25163;SDS011;13440;50.860;13.662;2023-12-28T02:30:27;0.77;;;0.70;;
25163;SDS011;13440;50.860;13.662;2023-12-28T02:32:54;0.75;;;0.65;;
25163;SDS011;13440;50.860;13.662;2023-12-28T02:35:29;0.70;;;0.70;;
25163;SDS011;13440;50.860;13.662;2023-12-28T02:37:55;0.57;;;0.50;;
25163;SDS011;13440;50.860;13.662;2023-12-28T02:40:23;0.77;;;0.70;;
25163;SDS011;13440;50.860;13.662;2023-12-28T02:42:48;0.93;;;0.73;;
25163;SDS011;13440;50.860;13.662;2023-12-28T02:45:14;0.70;;;0.60;;
25163;SDS011;13440;50.860;13.662;2023-12-28T02:47:39;0.90;;;0.80;;
25163;SDS011;13440;50.860;13.662;2023-12-28T02:50:05;0.70;;;0.57;;
25163;SDS011;13440;50.860;13.662;2023-12-28T02:52:30;0.80;;;0.60;;
25163;SDS011;13440;50.860;13.662;2023-12-28T02:54:57;0.80;;;0.70;;
25163;SDS011;13440;50.860;13.662;2023-12-28T02:57:22;1.02;;;0.60;;
25163;SDS011;13440;50.860;13.662;2023-12-28T02:59:47;1.17;;;0.70;;
25163;SDS011;13440;50.860;13.662;2023-12-28T03:02:13;0.90;;;0.70;;
25163;SDS011;13440;50.860;13.662;2023-12-28T03:04:38;0.68;;;0.68;;
25163;SDS011;13440;50.860;13.662;2023-12-28T03:07:04;0.47;;;0.47;;
25163;SDS011;13440;50.860;13.662;2023-12-28T03:09:30;0.90;;;0.70;;
25163;SDS011;13440;50.860;13.662;2023-12-28T03:11:55;0.80;;;0.60;;
25163;SDS011;13440;50.860;13.662;2023-12-28T03:14:20;0.90;;;0.73;;
25163;SDS011;13440;50.860;13.662;2023-12-28T03:16:46;0.50;;;0.50;;
25163;SDS011;13440;50.860;13.662;2023-12-28T03:19:11;0.80;;;0.70;;
25163;SDS011;13440;50.860;13.662;2023-12-28T03:21:39;0.67;;;0.60;;
25163;SDS011;13440;50.860;13.662;2023-12-28T03:24:05;0.65;;;0.57;;
25163;SDS011;13440;50.860;13.662;2023-12-28T03:26:32;1.35;;;0.73;;
25163;SDS011;13440;50.860;13.662;2023-12-28T03:28:57;0.93;;;0.63;;
25163;SDS011;13440;50.860;13.662;2023-12-28T03:31:22;0.90;;;0.60;;
25163;SDS011;13440;50.860;13.662;2023-12-28T03:33:48;0.70;;;0.70;;
25163;SDS011;13440;50.860;13.662;2023-12-28T03:36:19;1.05;;;0.70;;
25163;SDS011;13440;50.860;13.662;2023-12-28T03:38:45;1.48;;;0.90;;
25163;SDS011;13440;50.860;13.662;2023-12-28T03:41:19;0.90;;;0.80;;
25163;SDS011;13440;50.860;13.662;2023-12-28T03:43:45;0.93;;;0.88;;
25163;SDS011;13440;50.860;13.662;2023-12-28T03:46:10;1.45;;;0.93;;
25163;SDS011;13440;50.860;13.662;2023-12-28T03:48:36;0.80;;;0.65;;
25163;SDS011;13440;50.860;13.662;2023-12-28T03:51:01;1.23;;;0.75;;
25163;SDS011;13440;50.860;13.662;2023-12-28T03:53:27;0.82;;;0.70;;
25163;SDS011;13440;50.860;13.662;2023-12-28T03:55:52;1.20;;;0.80;;
25163;SDS011;13440;50.860;13.662;2023-12-28T03:58:18;0.95;;;0.85;;
25163;SDS011;13440;50.860;13.662;2023-12-28T04:00:44;0.90;;;0.90;;
25163;SDS011;13440;50.860;13.662;2023-12-28T04:03:09;1.20;;;0.95;;
25163;SDS011;13440;50.860;13.662;2023-12-28T04:05:35;0.80;;;0.80;;
25163;SDS011;13440;50.860;13.662;2023-12-28T04:08:00;1.93;;;1.17;;
25163;SDS011;13440;50.860;13.662;2023-12-28T04:10:30;1.17;;;1.02;;
25163;SDS011;13440;50.860;13.662;2023-12-28T04:12:56;1.33;;;1.00;;
25163;SDS011;13440;50.860;13.662;2023-12-28T04:15:23;2.65;;;1.10;;
25163;SDS011;13440;50.860;13.662;2023-12-28T04:17:48;1.17;;;1.08;;
25163;SDS011;13440;50.860;13.662;2023-12-28T04:20:13;1.70;;;1.20;;
25163;SDS011;13440;50.860;13.662;2023-12-28T04:22:38;1.73;;;1.10;;
25163;SDS011;13440;50.860;13.662;2023-12-28T04:25:04;1.70;;;1.40;;
25163;SDS011;13440;50.860;13.662;2023-12-28T04:27:29;1.65;;;1.30;;
25163;SDS011;13440;50.860;13.662;2023-12-28T04:29:54;1.80;;;1.20;;
25163;SDS011;13440;50.860;13.662;2023-12-28T04:32:20;1.33;;;1.20;;
25163;SDS011;13440;50.860;13.662;2023-12-28T04:34:45;3.22;;;1.30;;
25163;SDS011;13440;50.860;13.662;2023-12-28T04:37:10;1.58;;;1.40;;
25163;SDS011;13440;50.860;13.662;2023-12-28T04:39:36;2.13;;;1.50;;
25163;SDS011;13440;50.860;13.662;2023-12-28T04:42:02;1.85;;;1.50;;
25163;SDS011;13440;50.860;13.662;2023-12-28T04:44:28;1.63;;;1.20;;
25163;SDS011;13440;50.860;13.662;2023-12-28T04:46:53;2.13;;;1.30;;
25163;SDS011;13440;50.860;13.662;2023-12-28T04:49:18;2.20;;;1.58;;
25163;SDS011;13440;50.860;13.662;2023-12-28T04:51:44;1.83;;;1.42;;
25163;SDS011;13440;50.860;13.662;2023-12-28T04:54:09;1.63;;;1.17;;
25163;SDS011;13440;50.860;13.662;2023-12-28T04:56:34;2.08;;;1.30;;
25163;SDS011;13440;50.860;13.662;2023-12-28T04:58:59;4.53;;;1.50;;
25163;SDS011;13440;50.860;13.662;2023-12-28T05:01:25;3.43;;;1.40;;
25163;SDS011;13440;50.860;13.662;2023-12-28T05:03:50;2.00;;;1.35;;
25163;SDS011;13440;50.860;13.662;2023-12-28T05:06:15;1.63;;;1.20;;
25163;SDS011;13440;50.860;13.662;2023-12-28T05:08:42;1.73;;;1.40;;
25163;SDS011;13440;50.860;13.662;2023-12-28T05:11:08;1.90;;;1.37;;
25163;SDS011;13440;50.860;13.662;2023-12-28T05:13:33;1.83;;;1.30;;
25163;SDS011;13440;50.860;13.662;2023-12-28T05:15:59;1.77;;;1.30;;
25163;SDS011;13440;50.860;13.662;2023-12-28T05:18:25;2.47;;;1.15;;
25163;SDS011;13440;50.860;13.662;2023-12-28T05:20:51;2.00;;;1.40;;
25163;SDS011;13440;50.860;13.662;2023-12-28T05:23:16;3.30;;;1.30;;
25163;SDS011;13440;50.860;13.662;2023-12-28T05:25:42;1.58;;;1.23;;
25163;SDS011;13440;50.860;13.662;2023-12-28T05:28:07;1.20;;;1.10;;
25163;SDS011;13440;50.860;13.662;2023-12-28T05:30:32;1.52;;;1.30;;
25163;SDS011;13440;50.860;13.662;2023-12-28T05:32:57;2.00;;;1.20;;
25163;SDS011;13440;50.860;13.662;2023-12-28T05:35:22;2.10;;;1.30;;
25163;SDS011;13440;50.860;13.662;2023-12-28T05:37:48;1.73;;;1.20;;
25163;SDS011;13440;50.860;13.662;2023-12-28T05:40:13;2.00;;;1.20;;
25163;SDS011;13440;50.860;13.662;2023-12-28T05:42:38;1.40;;;1.10;;
25163;SDS011;13440;50.860;13.662;2023-12-28T05:45:03;2.38;;;1.25;;
25163;SDS011;13440;50.860;13.662;2023-12-28T05:47:29;3.03;;;1.20;;
25163;SDS011;13440;50.860;13.662;2023-12-28T05:49:54;1.57;;;1.10;;
25163;SDS011;13440;50.860;13.662;2023-12-28T05:52:19;4.10;;;1.30;;
25163;SDS011;13440;50.860;13.662;2023-12-28T05:54:45;2.78;;;1.27;;
25163;SDS011;13440;50.860;13.662;2023-12-28T05:57:10;2.30;;;1.10;;
25163;SDS011;13440;50.860;13.662;2023-12-28T05:59:38;3.03;;;1.10;;
25163;SDS011;13440;50.860;13.662;2023-12-28T06:02:06;2.22;;;1.05;;
25163;SDS011;13440;50.860;13.662;2023-12-28T06:04:32;1.88;;;1.05;;
25163;SDS011;13440;50.860;13.662;2023-12-28T06:06:58;3.42;;;1.30;;
25163;SDS011;13440;50.860;13.662;2023-12-28T06:09:24;4.10;;;1.47;;
25163;SDS011;13440;50.860;13.662;2023-12-28T06:11:49;2.67;;;1.50;;
25163;SDS011;13440;50.860;13.662;2023-12-28T06:14:14;2.03;;;1.10;;
25163;SDS011;13440;50.860;13.662;2023-12-28T06:16:39;3.20;;;1.10;;
25163;SDS011;13440;50.860;13.662;2023-12-28T06:19:04;2.90;;;1.23;;
25163;SDS011;13440;50.860;13.662;2023-12-28T06:21:30;2.17;;;1.13;;
25163;SDS011;13440;50.860;13.662;2023-12-28T06:23:57;2.80;;;1.52;;
25163;SDS011;13440;50.860;13.662;2023-12-28T06:26:22;2.90;;;1.40;;
25163;SDS011;13440;50.860;13.662;2023-12-28T06:28:48;2.33;;;1.40;;
25163;SDS011;13440;50.860;13.662;2023-12-28T06:31:13;1.83;;;1.13;;
25163;SDS011;13440;50.860;13.662;2023-12-28T06:33:38;2.95;;;1.48;;
25163;SDS011;13440;50.860;13.662;2023-12-28T06:36:06;2.25;;;1.30;;
25163;SDS011;13440;50.860;13.662;2023-12-28T06:38:32;2.25;;;1.25;;
25163;SDS011;13440;50.860;13.662;2023-12-28T06:40:58;3.78;;;1.40;;
25163;SDS011;13440;50.860;13.662;2023-12-28T06:43:23;3.77;;;1.33;;
25163;SDS011;13440;50.860;13.662;2023-12-28T06:45:48;2.80;;;1.60;;
25163;SDS011;13440;50.860;13.662;2023-12-28T06:48:13;3.30;;;1.23;;
25163;SDS011;13440;50.860;13.662;2023-12-28T06:50:39;3.30;;;1.30;;
25163;SDS011;13440;50.860;13.662;2023-12-28T06:53:04;2.67;;;1.20;;
25163;SDS011;13440;50.860;13.662;2023-12-28T06:55:29;2.80;;;1.20;;
25163;SDS011;13440;50.860;13.662;2023-12-28T06:57:54;3.30;;;1.43;;
25163;SDS011;13440;50.860;13.662;2023-12-28T07:00:19;3.20;;;1.50;;
25163;SDS011;13440;50.860;13.662;2023-12-28T07:02:45;3.17;;;1.43;;
25163;SDS011;13440;50.860;13.662;2023-12-28T07:05:10;1.35;;;1.20;;
25163;SDS011;13440;50.860;13.662;2023-12-28T07:07:37;4.00;;;1.45;;
25163;SDS011;13440;50.860;13.662;2023-12-28T07:10:02;2.70;;;1.30;;
25163;SDS011;13440;50.860;13.662;2023-12-28T07:12:28;5.10;;;1.73;;
25163;SDS011;13440;50.860;13.662;2023-12-28T07:14:53;4.70;;;1.70;;
25163;SDS011;13440;50.860;13.662;2023-12-28T07:17:18;2.33;;;1.17;;
25163;SDS011;13440;50.860;13.662;2023-12-28T07:19:43;2.30;;;1.60;;
25163;SDS011;13440;50.860;13.662;2023-12-28T07:22:09;3.30;;;1.80;;
25163;SDS011;13440;50.860;13.662;2023-12-28T07:24:34;2.28;;;1.40;;
25163;SDS011;13440;50.860;13.662;2023-12-28T07:26:59;2.08;;;1.48;;
25163;SDS011;13440;50.860;13.662;2023-12-28T07:29:24;3.03;;;1.60;;
25163;SDS011;13440;50.860;13.662;2023-12-28T07:31:50;2.37;;;1.70;;
25163;SDS011;13440;50.860;13.662;2023-12-28T07:34:15;2.87;;;1.70;;
25163;SDS011;13440;50.860;13.662;2023-12-28T07:36:40;2.30;;;1.58;;
25163;SDS011;13440;50.860;13.662;2023-12-28T07:39:08;4.18;;;1.70;;
25163;SDS011;13440;50.860;13.662;2023-12-28T07:41:33;2.75;;;1.63;;
25163;SDS011;13440;50.860;13.662;2023-12-28T07:43:58;2.00;;;1.30;;
25163;SDS011;13440;50.860;13.662;2023-12-28T07:46:24;9.97;;;4.70;;
25163;SDS011;13440;50.860;13.662;2023-12-28T07:48:49;8.40;;;5.43;;
25163;SDS011;13440;50.860;13.662;2023-12-28T07:51:14;2.10;;;1.30;;
25163;SDS011;13440;50.860;13.662;2023-12-28T07:53:39;4.25;;;1.80;;
25163;SDS011;13440;50.860;13.662;2023-12-28T07:56:05;2.30;;;1.40;;
25163;SDS011;13440;50.860;13.662;2023-12-28T07:58:30;4.63;;;1.60;;
25163;SDS011;13440;50.860;13.662;2023-12-28T08:00:56;2.20;;;1.30;;
25163;SDS011;13440;50.860;13.662;2023-12-28T08:03:21;2.90;;;2.10;;
25163;SDS011;13440;50.860;13.662;2023-12-28T08:05:46;3.27;;;2.60;;
25163;SDS011;13440;50.860;13.662;2023-12-28T08:08:11;2.83;;;1.60;;
25163;SDS011;13440;50.860;13.662;2023-12-28T08:10:37;2.67;;;1.88;;
25163;SDS011;13440;50.860;13.662;2023-12-28T08:13:02;5.00;;;2.03;;
25163;SDS011;13440;50.860;13.662;2023-12-28T08:15:27;3.38;;;2.80;;
25163;SDS011;13440;50.860;13.662;2023-12-28T08:17:52;3.77;;;3.00;;
25163;SDS011;13440;50.860;13.662;2023-12-28T08:20:17;2.57;;;2.10;;
25163;SDS011;13440;50.860;13.662;2023-12-28T08:22:43;4.20;;;2.13;;
25163;SDS011;13440;50.860;13.662;2023-12-28T08:25:08;2.77;;;2.00;;
25163;SDS011;13440;50.860;13.662;2023-12-28T08:27:33;3.92;;;2.30;;
25163;SDS011;13440;50.860;13.662;2023-12-28T08:29:58;4.63;;;2.05;;
25163;SDS011;13440;50.860;13.662;2023-12-28T08:32:23;3.10;;;2.10;;
25163;SDS011;13440;50.860;13.662;2023-12-28T08:34:49;4.73;;;1.90;;
25163;SDS011;13440;50.860;13.662;2023-12-28T08:37:14;3.87;;;2.27;;
25163;SDS011;13440;50.860;13.662;2023-12-28T08:39:39;4.68;;;2.72;;
25163;SDS011;13440;50.860;13.662;2023-12-28T08:42:05;5.53;;;3.80;;
25163;SDS011;13440;50.860;13.662;2023-12-28T08:44:30;3.83;;;2.50;;
25163;SDS011;13440;50.860;13.662;2023-12-28T08:46:55;2.38;;;1.85;;
25163;SDS011;13440;50.860;13.662;2023-12-28T08:49:20;2.30;;;1.60;;
25163;SDS011;13440;50.860;13.662;2023-12-28T08:51:47;2.53;;;1.70;;
25163;SDS011;13440;50.860;13.662;2023-12-28T08:54:12;3.28;;;2.60;;
25163;SDS011;13440;50.860;13.662;2023-12-28T08:56:37;3.43;;;1.47;;
25163;SDS011;13440;50.860;13.662;2023-12-28T08:59:02;2.97;;;1.53;;
25163;SDS011;13440;50.860;13.662;2023-12-28T09:01:28;3.53;;;1.65;;
25163;SDS011;13440;50.860;13.662;2023-12-28T09:03:54;2.15;;;1.70;;
25163;SDS011;13440;50.860;13.662;2023-12-28T09:06:20;2.45;;;1.50;;
25163;SDS011;13440;50.860;13.662;2023-12-28T09:08:46;2.60;;;1.60;;
25163;SDS011;13440;50.860;13.662;2023-12-28T09:11:12;1.65;;;1.40;;
25163;SDS011;13440;50.860;13.662;2023-12-28T09:13:38;3.10;;;1.70;;
25163;SDS011;13440;50.860;13.662;2023-12-28T09:16:03;1.77;;;1.40;;
25163;SDS011;13440;50.860;13.662;2023-12-28T09:18:29;2.10;;;1.60;;
25163;SDS011;13440;50.860;13.662;2023-12-28T09:20:54;3.13;;;1.77;;
25163;SDS011;13440;50.860;13.662;2023-12-28T09:23:20;1.90;;;1.40;;
25163;SDS011;13440;50.860;13.662;2023-12-28T09:25:45;2.65;;;1.58;;
25163;SDS011;13440;50.860;13.662;2023-12-28T09:28:10;3.60;;;1.77;;
25163;SDS011;13440;50.860;13.662;2023-12-28T09:30:35;1.30;;;1.20;;
25163;SDS011;13440;50.860;13.662;2023-12-28T09:33:01;2.88;;;1.40;;
25163;SDS011;13440;50.860;13.662;2023-12-28T09:35:26;2.50;;;1.33;;
25163;SDS011;13440;50.860;13.662;2023-12-28T09:37:51;2.28;;;1.40;;
25163;SDS011;13440;50.860;13.662;2023-12-28T09:40:17;2.88;;;1.63;;
25163;SDS011;13440;50.860;13.662;2023-12-28T09:45:13;2.10;;;1.60;;
25163;SDS011;13440;50.860;13.662;2023-12-28T09:47:39;2.13;;;1.65;;
25163;SDS011;13440;50.860;13.662;2023-12-28T09:50:05;1.60;;;1.38;;
25163;SDS011;13440;50.860;13.662;2023-12-28T09:52:31;3.78;;;1.42;;
25163;SDS011;13440;50.860;13.662;2023-12-28T09:54:56;3.30;;;1.30;;
25163;SDS011;13440;50.860;13.662;2023-12-28T09:57:21;2.00;;;1.20;;
25163;SDS011;13440;50.860;13.662;2023-12-28T09:59:48;1.00;;;0.93;;
25163;SDS011;13440;50.860;13.662;2023-12-28T10:02:14;1.35;;;1.10;;
25163;SDS011;13440;50.860;13.662;2023-12-28T10:04:39;1.73;;;1.02;;
25163;SDS011;13440;50.860;13.662;2023-12-28T10:07:05;2.97;;;1.35;;
25163;SDS011;13440;50.860;13.662;2023-12-28T10:09:30;1.20;;;1.10;;
25163;SDS011;13440;50.860;13.662;2023-12-28T10:11:55;2.47;;;1.50;;
25163;SDS011;13440;50.860;13.662;2023-12-28T10:14:21;1.98;;;1.30;;
25163;SDS011;13440;50.860;13.662;2023-12-28T10:16:46;2.10;;;1.38;;
25163;SDS011;13440;50.860;13.662;2023-12-28T10:19:12;3.45;;;1.88;;
25163;SDS011;13440;50.860;13.662;2023-12-28T10:21:39;2.17;;;1.60;;
25163;SDS011;13440;50.860;13.662;2023-12-28T10:24:04;1.63;;;1.42;;
25163;SDS011;13440;50.860;13.662;2023-12-28T10:26:30;1.40;;;1.30;;
25163;SDS011;13440;50.860;13.662;2023-12-28T10:29:01;2.97;;;1.40;;
25163;SDS011;13440;50.860;13.662;2023-12-28T10:31:28;2.10;;;1.40;;
25163;SDS011;13440;50.860;13.662;2023-12-28T10:33:53;1.90;;;1.30;;
25163;SDS011;13440;50.860;13.662;2023-12-28T10:36:18;2.67;;;1.57;;
25163;SDS011;13440;50.860;13.662;2023-12-28T10:38:44;2.58;;;1.35;;
25163;SDS011;13440;50.860;13.662;2023-12-28T10:41:10;1.90;;;1.70;;
25163;SDS011;13440;50.860;13.662;2023-12-28T10:43:46;2.35;;;1.60;;
25163;SDS011;13440;50.860;13.662;2023-12-28T10:46:21;3.42;;;1.70;;
25163;SDS011;13440;50.860;13.662;2023-12-28T10:48:48;2.28;;;1.48;;
25163;SDS011;13440;50.860;13.662;2023-12-28T10:51:16;2.35;;;1.50;;
25163;SDS011;13440;50.860;13.662;2023-12-28T10:53:52;2.85;;;1.48;;
25163;SDS011;13440;50.860;13.662;2023-12-28T10:56:41;2.65;;;1.65;;
25163;SDS011;13440;50.860;13.662;2023-12-28T10:59:17;2.30;;;1.65;;
25163;SDS011;13440;50.860;13.662;2023-12-28T11:01:45;2.33;;;1.75;;
25163;SDS011;13440;50.860;13.662;2023-12-28T11:04:27;1.65;;;1.50;;
25163;SDS011;13440;50.860;13.662;2023-12-28T11:06:56;2.30;;;1.80;;
25163;SDS011;13440;50.860;13.662;2023-12-28T11:09:22;2.08;;;1.50;;
25163;SDS011;13440;50.860;13.662;2023-12-28T11:11:49;1.67;;;1.40;;
25163;SDS011;13440;50.860;13.662;2023-12-28T11:14:16;3.15;;;2.00;;
25163;SDS011;13440;50.860;13.662;2023-12-28T11:16:41;3.78;;;1.85;;
25163;SDS011;13440;50.860;13.662;2023-12-28T11:19:08;2.53;;;1.50;;
25163;SDS011;13440;50.860;13.662;2023-12-28T11:21:34;1.92;;;1.50;;
25163;SDS011;13440;50.860;13.662;2023-12-28T11:24:00;2.42;;;1.77;;
25163;SDS011;13440;50.860;13.662;2023-12-28T11:26:25;3.67;;;2.10;;
25163;SDS011;13440;50.860;13.662;2023-12-28T11:28:59;4.28;;;1.42;;
25163;SDS011;13440;50.860;13.662;2023-12-28T11:31:25;4.20;;;2.47;;
25163;SDS011;13440;50.860;13.662;2023-12-28T11:33:51;3.55;;;2.17;;
25163;SDS011;13440;50.860;13.662;2023-12-28T11:36:25;1.67;;;1.58;;
25163;SDS011;13440;50.860;13.662;2023-12-28T11:38:55;2.70;;;2.00;;
25163;SDS011;13440;50.860;13.662;2023-12-28T11:41:24;1.92;;;1.58;;
25163;SDS011;13440;50.860;13.662;2023-12-28T11:43:53;2.05;;;1.75;;
25163;SDS011;13440;50.860;13.662;2023-12-28T11:46:18;3.30;;;1.63;;
25163;SDS011;13440;50.860;13.662;2023-12-28T11:48:44;6.07;;;1.85;;
25163;SDS011;13440;50.860;13.662;2023-12-28T11:51:10;2.28;;;1.40;;
25163;SDS011;13440;50.860;13.662;2023-12-28T11:53:35;1.95;;;1.65;;
25163;SDS011;13440;50.860;13.662;2023-12-28T11:56:01;2.05;;;1.23;;
25163;SDS011;13440;50.860;13.662;2023-12-28T11:58:31;1.98;;;1.25;;
25163;SDS011;13440;50.860;13.662;2023-12-28T12:00:58;2.35;;;1.70;;
25163;SDS011;13440;50.860;13.662;2023-12-28T12:03:24;2.78;;;1.30;;
25163;SDS011;13440;50.860;13.662;2023-12-28T12:05:49;1.30;;;1.20;;
25163;SDS011;13440;50.860;13.662;2023-12-28T12:08:14;2.20;;;1.37;;
25163;SDS011;13440;50.860;13.662;2023-12-28T12:10:40;2.17;;;1.30;;
25163;SDS011;13440;50.860;13.662;2023-12-28T12:13:06;4.20;;;1.60;;
25163;SDS011;13440;50.860;13.662;2023-12-28T12:15:31;4.03;;;1.60;;
25163;SDS011;13440;50.860;13.662;2023-12-28T12:17:57;1.85;;;1.50;;
25163;SDS011;13440;50.860;13.662;2023-12-28T12:20:22;1.63;;;1.40;;
25163;SDS011;13440;50.860;13.662;2023-12-28T12:22:48;2.03;;;1.38;;
25163;SDS011;13440;50.860;13.662;2023-12-28T12:25:14;1.35;;;1.20;;
25163;SDS011;13440;50.860;13.662;2023-12-28T12:27:40;2.05;;;1.38;;
25163;SDS011;13440;50.860;13.662;2023-12-28T12:30:06;4.32;;;1.70;;
25163;SDS011;13440;50.860;13.662;2023-12-28T12:32:32;1.73;;;1.55;;
25163;SDS011;13440;50.860;13.662;2023-12-28T12:34:57;2.75;;;1.80;;
25163;SDS011;13440;50.860;13.662;2023-12-28T12:37:23;1.60;;;1.50;;
25163;SDS011;13440;50.860;13.662;2023-12-28T12:39:49;1.75;;;1.38;;
25163;SDS011;13440;50.860;13.662;2023-12-28T12:42:14;2.00;;;1.63;;
25163;SDS011;13440;50.860;13.662;2023-12-28T12:44:39;3.90;;;1.50;;
25163;SDS011;13440;50.860;13.662;2023-12-28T12:47:05;1.83;;;1.35;;
25163;SDS011;13440;50.860;13.662;2023-12-28T12:49:30;2.92;;;1.50;;
25163;SDS011;13440;50.860;13.662;2023-12-28T12:51:55;1.23;;;1.13;;
25163;SDS011;13440;50.860;13.662;2023-12-28T12:54:21;1.63;;;1.33;;
25163;SDS011;13440;50.860;13.662;2023-12-28T12:56:46;1.27;;;1.00;;
25163;SDS011;13440;50.860;13.662;2023-12-28T12:59:12;1.98;;;1.20;;
25163;SDS011;13440;50.860;13.662;2023-12-28T13:01:41;2.22;;;1.42;;
25163;SDS011;13440;50.860;13.662;2023-12-28T13:04:07;1.85;;;1.15;;
25163;SDS011;13440;50.860;13.662;2023-12-28T13:06:32;1.80;;;1.27;;
25163;SDS011;13440;50.860;13.662;2023-12-28T13:08:57;2.07;;;1.40;;
25163;SDS011;13440;50.860;13.662;2023-12-28T13:11:22;1.17;;;1.08;;
25163;SDS011;13440;50.860;13.662;2023-12-28T13:13:51;3.55;;;1.67;;
25163;SDS011;13440;50.860;13.662;2023-12-28T13:16:16;3.15;;;1.83;;
25163;SDS011;13440;50.860;13.662;2023-12-28T13:18:41;2.90;;;1.67;;
25163;SDS011;13440;50.860;13.662;2023-12-28T13:21:07;1.55;;;1.30;;
25163;SDS011;13440;50.860;13.662;2023-12-28T13:23:32;3.13;;;1.40;;
25163;SDS011;13440;50.860;13.662;2023-12-28T13:25:57;2.20;;;1.50;;
25163;SDS011;13440;50.860;13.662;2023-12-28T13:28:22;2.57;;;2.00;;
25163;SDS011;13440;50.860;13.662;2023-12-28T13:30:47;4.10;;;2.40;;
25163;SDS011;13440;50.860;13.662;2023-12-28T13:33:15;2.65;;;1.65;;
25163;SDS011;13440;50.860;13.662;2023-12-28T13:35:41;2.60;;;1.67;;
25163;SDS011;13440;50.860;13.662;2023-12-28T13:38:06;5.33;;;2.70;;
25163;SDS011;13440;50.860;13.662;2023-12-28T13:40:31;2.55;;;1.90;;
25163;SDS011;13440;50.860;13.662;2023-12-28T13:42:56;3.17;;;1.90;;
25163;SDS011;13440;50.860;13.662;2023-12-28T13:45:21;3.45;;;1.45;;
25163;SDS011;13440;50.860;13.662;2023-12-28T13:47:47;3.40;;;1.70;;
25163;SDS011;13440;50.860;13.662;2023-12-28T13:50:12;2.53;;;1.40;;
25163;SDS011;13440;50.860;13.662;2023-12-28T13:52:37;2.90;;;1.33;;
25163;SDS011;13440;50.860;13.662;2023-12-28T13:55:02;1.87;;;1.37;;
25163;SDS011;13440;50.860;13.662;2023-12-28T13:57:28;1.52;;;1.25;;
25163;SDS011;13440;50.860;13.662;2023-12-28T13:59:53;1.80;;;1.23;;
25163;SDS011;13440;50.860;13.662;2023-12-28T14:02:18;1.10;;;1.00;;
25163;SDS011;13440;50.860;13.662;2023-12-28T14:04:43;1.20;;;1.10;;
25163;SDS011;13440;50.860;13.662;2023-12-28T14:07:09;1.88;;;1.27;;
25163;SDS011;13440;50.860;13.662;2023-12-28T14:09:34;3.03;;;1.47;;
25163;SDS011;13440;50.860;13.662;2023-12-28T14:12:01;5.55;;;2.40;;
25163;SDS011;13440;50.860;13.662;2023-12-28T14:14:26;2.10;;;1.58;;
25163;SDS011;13440;50.860;13.662;2023-12-28T14:16:51;1.63;;;1.30;;
25163;SDS011;13440;50.860;13.662;2023-12-28T14:19:16;5.17;;;3.00;;
25163;SDS011;13440;50.860;13.662;2023-12-28T14:21:41;2.50;;;1.50;;
25163;SDS011;13440;50.860;13.662;2023-12-28T14:24:08;1.80;;;1.50;;
25163;SDS011;13440;50.860;13.662;2023-12-28T14:26:34;1.45;;;1.20;;
25163;SDS011;13440;50.860;13.662;2023-12-28T14:29:00;1.63;;;1.30;;